Time;durP1;ratioP1;P1;durP2;ratioP2;P2;SDS_P1;SDS_P2;PMS_P1;PMS_P2;Temp;Humidity;BMP_temperature;BMP_pressure;BME280_temperature;BME280_humidity;BME280_pressure;Samples;Min_cycle;Max_cycle;Signal;HPM_P1;HPM_P2
2023/09/22 00:02:21;;;;;;;6.57;3.78;;;;;;;;;;4995303;28;20120;-83
2023/09/22 00:04:47;;;;;;;6.18;4.03;;;;;;;;;;5005487;28;20044;-82
2023/09/22 00:07:12;;;;;;;8.05;3.83;;;;;;;;;;4986339;28;20498;-82
2023/09/22 00:09:38;;;;;;;8.43;4.18;;;;;;;;;;4992578;28;20034;-82
2023/09/22 00:12:06;;;;;;;8.38;3.90;;;;;;;;;;5003100;28;20030;-83
2023/09/22 00:14:32;;;;;;;8.30;4.28;;;;;;;;;;4991802;28;20128;-82
2023/09/22 00:16:57;;;;;;;7.22;4.07;;;;;;;;;;4999258;28;20037;-83
2023/09/22 00:19:22;;;;;;;7.22;3.92;;;;;;;;;;4983140;28;20052;-83
2023/09/22 00:21:48;;;;;;;8.02;4.38;;;;;;;;;;5008668;28;20058;-82
2023/09/22 00:24:16;;;;;;;9.57;3.97;;;;;;;;;;5009241;28;20101;-83
2023/09/22 00:26:41;;;;;;;6.07;4.25;;;;;;;;;;5006022;28;20042;-83
2023/09/22 00:29:07;;;;;;;7.80;4.22;;;;;;;;;;5002994;28;20420;-83
2023/09/22 00:31:32;;;;;;;8.10;4.22;;;;;;;;;;4987526;28;20038;-82
2023/09/22 00:33:58;;;;;;;7.80;4.57;;;;;;;;;;5006803;28;20124;-83
2023/09/22 00:36:25;;;;;;;7.90;4.75;;;;;;;;;;4988508;28;20484;-83
2023/09/22 00:38:51;;;;;;;8.80;4.45;;;;;;;;;;4992737;28;20038;-84
2023/09/22 00:41:16;;;;;;;7.75;5.22;;;;;;;;;;5007553;28;20042;-83
2023/09/22 00:43:41;;;;;;;8.35;4.95;;;;;;;;;;5003460;28;20045;-82
2023/09/22 00:46:07;;;;;;;8.95;5.20;;;;;;;;;;4974704;28;20044;-82
2023/09/22 00:48:34;;;;;;;9.55;5.15;;;;;;;;;;4991022;28;20389;-83
2023/09/22 00:51:01;;;;;;;8.53;5.33;;;;;;;;;;4991651;28;20046;-83
2023/09/22 00:53:28;;;;;;;7.72;4.80;;;;;;;;;;4974298;28;20497;-83
2023/09/22 00:55:54;;;;;;;9.43;5.25;;;;;;;;;;4988911;28;20037;-82
2023/09/22 00:58:19;;;;;;;8.30;5.03;;;;;;;;;;4992536;28;20056;-83
2023/09/22 01:00:49;;;;;;;13.05;6.68;;;;;;;;;;4992497;28;20197;-83
2023/09/22 01:03:15;;;;;;;9.50;5.47;;;;;;;;;;4975197;28;20655;-83
2023/09/22 01:05:40;;;;;;;8.27;4.93;;;;;;;;;;5006625;28;20033;-83
2023/09/22 01:08:08;;;;;;;10.13;5.55;;;;;;;;;;4981331;28;20050;-83
2023/09/22 01:10:38;;;;;;;9.18;5.88;;;;;;;;;;4969411;28;20052;-83
2023/09/22 01:13:07;;;;;;;8.30;6.18;;;;;;;;;;5006676;28;20450;-83
2023/09/22 01:15:37;;;;;;;9.13;5.85;;;;;;;;;;4979598;28;20038;-84
2023/09/22 01:18:04;;;;;;;9.10;5.68;;;;;;;;;;5000357;28;20084;-84
2023/09/22 01:20:30;;;;;;;10.68;6.05;;;;;;;;;;4979980;28;20446;-81
2023/09/22 01:22:56;;;;;;;9.80;6.10;;;;;;;;;;4991091;28;20041;-83
2023/09/22 01:25:22;;;;;;;10.52;6.28;;;;;;;;;;4997775;28;20038;-83
2023/09/22 01:27:48;;;;;;;8.15;5.65;;;;;;;;;;4978582;28;20069;-82
2023/09/22 01:30:14;;;;;;;8.50;5.97;;;;;;;;;;4993856;28;20034;-84
2023/09/22 01:32:40;;;;;;;10.63;6.50;;;;;;;;;;5009383;28;20501;-82
2023/09/22 01:35:09;;;;;;;10.35;6.18;;;;;;;;;;4978819;28;20054;-83
2023/09/22 01:37:38;;;;;;;9.35;6.78;;;;;;;;;;4995029;28;20038;-83
2023/09/22 01:40:04;;;;;;;12.40;6.90;;;;;;;;;;4990052;28;20038;-81
2023/09/22 01:42:29;;;;;;;10.18;6.88;;;;;;;;;;4989276;28;20413;-82
2023/09/22 01:44:55;;;;;;;9.60;6.30;;;;;;;;;;5004597;28;20038;-83
2023/09/22 01:47:21;;;;;;;9.07;6.40;;;;;;;;;;4993428;28;20037;-83
2023/09/22 01:49:47;;;;;;;10.18;6.32;;;;;;;;;;5007272;28;20034;-83
2023/09/22 01:52:12;;;;;;;7.93;6.30;;;;;;;;;;4996079;28;20433;-84
2023/09/22 01:54:38;;;;;;;9.27;6.63;;;;;;;;;;4987704;28;20061;-83
2023/09/22 01:57:03;;;;;;;8.38;6.10;;;;;;;;;;5005522;28;20168;-81
2023/09/22 01:59:28;;;;;;;8.75;6.00;;;;;;;;;;4996404;28;20066;-82
2023/09/22 02:01:54;;;;;;;9.38;6.38;;;;;;;;;;5007567;28;20030;-82
2023/09/22 02:04:19;;;;;;;10.02;6.40;;;;;;;;;;5007063;28;20099;-81
2023/09/22 02:06:45;;;;;;;10.55;6.32;;;;;;;;;;5008965;28;20034;-82
2023/09/22 02:09:10;;;;;;;11.23;6.07;;;;;;;;;;4993546;28;20038;-82
2023/09/22 02:11:36;;;;;;;9.30;6.05;;;;;;;;;;5006961;28;20042;-81
2023/09/22 02:14:01;;;;;;;8.43;5.80;;;;;;;;;;4991487;28;20034;-82
2023/09/22 02:16:28;;;;;;;9.57;6.45;;;;;;;;;;5010622;28;20819;-81
2023/09/22 02:18:53;;;;;;;10.77;6.32;;;;;;;;;;5008127;28;20049;-82
2023/09/22 02:21:18;;;;;;;10.40;6.13;;;;;;;;;;5009846;28;20034;-81
2023/09/22 02:23:44;;;;;;;11.02;6.40;;;;;;;;;;4994348;28;20042;-81
2023/09/22 02:26:09;;;;;;;10.07;5.95;;;;;;;;;;5007284;28;20038;-84
2023/09/22 02:28:35;;;;;;;8.80;5.40;;;;;;;;;;4992805;28;20133;-82
2023/09/22 02:31:01;;;;;;;10.02;5.43;;;;;;;;;;4989752;28;20030;-82
2023/09/22 02:33:27;;;;;;;10.63;5.53;;;;;;;;;;4997448;28;20034;-81
2023/09/22 02:35:52;;;;;;;9.05;5.72;;;;;;;;;;5008319;28;20084;-83
2023/09/22 02:38:17;;;;;;;8.75;5.60;;;;;;;;;;4995183;28;20117;-83
2023/09/22 02:40:46;;;;;;;9.30;5.50;;;;;;;;;;4992575;28;20591;-82
2023/09/22 02:43:11;;;;;;;7.43;5.30;;;;;;;;;;5003866;28;20042;-82
2023/09/22 02:45:38;;;;;;;7.25;5.05;;;;;;;;;;5006459;28;20034;-82
2023/09/22 02:48:05;;;;;;;5.68;4.50;;;;;;;;;;5011780;28;20405;-83
2023/09/22 02:50:31;;;;;;;7.85;4.47;;;;;;;;;;5019090;28;20104;-83
2023/09/22 02:52:57;;;;;;;6.82;4.55;;;;;;;;;;5008859;28;20037;-82
2023/09/22 02:55:22;;;;;;;7.90;3.88;;;;;;;;;;5007134;28;20037;-82
2023/09/22 02:57:48;;;;;;;7.03;3.70;;;;;;;;;;5008311;28;20031;-82
2023/09/22 03:00:20;;;;;;;4.97;2.70;;;;;;;;;;4992615;28;20049;-82
2023/09/22 03:02:47;;;;;;;4.50;2.60;;;;;;;;;;5007511;28;20046;-82
2023/09/22 03:05:15;;;;;;;4.00;2.20;;;;;;;;;;5010078;28;20048;-83
2023/09/22 03:07:41;;;;;;;3.75;1.80;;;;;;;;;;5009234;28;20096;-81
2023/09/22 03:10:07;;;;;;;4.38;1.70;;;;;;;;;;5000012;28;20034;-83
2023/09/22 03:12:34;;;;;;;3.10;1.50;;;;;;;;;;4997217;28;20148;-83
2023/09/22 03:14:59;;;;;;;3.00;1.70;;;;;;;;;;4991358;28;20046;-81
2023/09/22 03:17:25;;;;;;;3.17;1.52;;;;;;;;;;5023368;28;20033;-82
2023/09/22 03:19:51;;;;;;;3.38;1.48;;;;;;;;;;4996583;28;20033;-82
2023/09/22 03:22:17;;;;;;;3.08;1.60;;;;;;;;;;4994392;28;20398;-81
2023/09/22 03:24:42;;;;;;;3.17;1.50;;;;;;;;;;5004306;28;20383;-82
2023/09/22 03:27:08;;;;;;;3.10;1.45;;;;;;;;;;5007265;28;20057;-82
2023/09/22 03:29:34;;;;;;;3.58;1.58;;;;;;;;;;4992141;28;20037;-82
2023/09/22 03:31:59;;;;;;;3.42;1.25;;;;;;;;;;4993055;28;20500;-82
2023/09/22 03:34:25;;;;;;;4.10;1.50;;;;;;;;;;5005409;28;20493;-82
2023/09/22 03:36:51;;;;;;;4.40;1.50;;;;;;;;;;4992511;28;20030;-81
2023/09/22 03:39:16;;;;;;;3.47;1.48;;;;;;;;;;5005252;28;20043;-83
2023/09/22 03:41:42;;;;;;;3.80;1.52;;;;;;;;;;5006561;28;20253;-84
2023/09/22 03:44:08;;;;;;;2.95;1.52;;;;;;;;;;5006818;28;20064;-81
2023/09/22 03:46:34;;;;;;;4.28;1.60;;;;;;;;;;4988833;28;20046;-84
2023/09/22 03:48:59;;;;;;;4.43;1.42;;;;;;;;;;4993688;28;20042;-82
2023/09/22 03:51:25;;;;;;;3.58;1.55;;;;;;;;;;4999381;28;20386;-82
2023/09/22 03:54:07;;;;;;;4.18;1.48;;;;;;;;;;5010035;28;20037;-83
2023/09/22 03:56:33;;;;;;;4.28;1.70;;;;;;;;;;5007329;28;20034;-83
2023/09/22 03:58:59;;;;;;;3.25;1.35;;;;;;;;;;4991417;28;20056;-82
2023/09/22 04:01:25;;;;;;;3.65;1.55;;;;;;;;;;4990191;28;20041;-83
2023/09/22 04:03:51;;;;;;;3.03;1.35;;;;;;;;;;5002365;28;20043;-85
2023/09/22 04:06:16;;;;;;;2.65;1.30;;;;;;;;;;4991172;28;20042;-85
2023/09/22 04:08:42;;;;;;;3.08;1.30;;;;;;;;;;5007048;28;20038;-84
2023/09/22 04:11:09;;;;;;;3.03;1.30;;;;;;;;;;4982107;28;20132;-83
2023/09/22 04:13:35;;;;;;;;;;;;;;;;;;4989563;28;20038;-82
2023/09/22 04:16:01;;;;;;;3.22;1.40;;;;;;;;;;5008104;28;20274;-83
2023/09/22 04:18:29;;;;;;;4.80;1.45;;;;;;;;;;5010867;28;20393;-82
2023/09/22 04:21:00;;;;;;;4.43;1.38;;;;;;;;;;4990011;28;20030;-83
2023/09/22 04:23:27;;;;;;;3.80;1.52;;;;;;;;;;4989278;28;20579;-82
2023/09/22 04:25:55;;;;;;;6.10;1.90;;;;;;;;;;4993055;28;20045;-84
2023/09/22 04:28:24;;;;;;;4.78;1.60;;;;;;;;;;5006994;28;20041;-83
2023/09/22 04:30:50;;;;;;;5.05;1.50;;;;;;;;;;4989837;28;20042;-83
2023/09/22 04:33:15;;;;;;;4.47;1.90;;;;;;;;;;5007534;28;20042;-87
2023/09/22 04:35:41;;;;;;;4.40;1.80;;;;;;;;;;5009593;28;20034;-83
2023/09/22 04:38:08;;;;;;;5.40;1.67;;;;;;;;;;4992510;28;20686;-84
2023/09/22 04:40:36;;;;;;;4.25;1.50;;;;;;;;;;5005021;28;20391;-84
2023/09/22 04:43:05;;;;;;;5.05;1.90;;;;;;;;;;5010111;28;20050;-85
2023/09/22 04:45:32;;;;;;;3.50;1.80;;;;;;;;;;5002083;28;20552;-84
2023/09/22 04:47:57;;;;;;;4.20;1.60;;;;;;;;;;4993907;28;20042;-85
2023/09/22 04:50:23;;;;;;;4.07;1.65;;;;;;;;;;5002361;28;20048;-83
2023/09/22 04:52:49;;;;;;;4.18;1.73;;;;;;;;;;5006175;28;20109;-83
2023/09/22 04:55:19;;;;;;;4.38;1.98;;;;;;;;;;5005472;28;20485;-83
2023/09/22 04:57:44;;;;;;;4.15;1.60;;;;;;;;;;5005532;28;20115;-83
2023/09/22 05:00:16;;;;;;;3.90;1.70;;;;;;;;;;4986063;28;20054;-84
2023/09/22 05:02:43;;;;;;;5.15;1.80;;;;;;;;;;5003306;28;20038;-83
2023/09/22 05:05:10;;;;;;;6.50;2.08;;;;;;;;;;5004164;28;20041;-82
2023/09/22 05:07:36;;;;;;;4.07;2.08;;;;;;;;;;5003072;28;20037;-82
2023/09/22 05:10:02;;;;;;;4.60;1.80;;;;;;;;;;5003276;28;20044;-84
2023/09/22 05:12:27;;;;;;;6.80;2.50;;;;;;;;;;5005564;28;20033;-83
2023/09/22 05:14:55;;;;;;;5.25;2.40;;;;;;;;;;4987747;28;20385;-83
2023/09/22 05:17:24;;;;;;;5.03;2.58;;;;;;;;;;5003463;28;20519;-83
2023/09/22 05:19:50;;;;;;;4.95;2.70;;;;;;;;;;4991662;28;20041;-84
2023/09/22 05:22:16;;;;;;;5.60;2.40;;;;;;;;;;5004234;28;20058;-83
2023/09/22 05:24:45;;;;;;;4.78;2.10;;;;;;;;;;5005343;28;20038;-83
2023/09/22 05:27:11;;;;;;;4.38;2.25;;;;;;;;;;4991341;28;20038;-83
2023/09/22 05:29:37;;;;;;;4.40;2.10;;;;;;;;;;5003738;28;20045;-83
2023/09/22 05:32:03;;;;;;;3.97;1.92;;;;;;;;;;4992789;28;20038;-83
2023/09/22 05:34:28;;;;;;;4.82;2.13;;;;;;;;;;4992413;28;20413;-84
2023/09/22 05:36:54;;;;;;;4.75;2.33;;;;;;;;;;4985463;28;20379;-82
2023/09/22 05:39:20;;;;;;;4.35;1.85;;;;;;;;;;4992527;28;20038;-84
2023/09/22 05:41:49;;;;;;;4.40;2.08;;;;;;;;;;5004123;28;20132;-84
2023/09/22 05:44:17;;;;;;;5.18;2.20;;;;;;;;;;5004720;28;20042;-84
2023/09/22 05:46:43;;;;;;;6.95;2.10;;;;;;;;;;4996616;28;20105;-85
2023/09/22 05:49:14;;;;;;;4.75;2.10;;;;;;;;;;5000403;28;20038;-84
2023/09/22 05:51:40;;;;;;;5.63;1.90;;;;;;;;;;4993114;28;20039;-83
2023/09/22 05:54:06;;;;;;;4.90;2.17;;;;;;;;;;5004995;28;20038;-82
2023/09/22 05:56:31;;;;;;;4.68;2.00;;;;;;;;;;5005169;28;20429;-84
2023/09/22 05:58:57;;;;;;;4.95;2.20;;;;;;;;;;5011641;28;20034;-83
2023/09/22 06:01:22;;;;;;;5.50;2.10;;;;;;;;;;4983531;28;20042;-83
2023/09/22 06:03:47;;;;;;;5.15;2.35;;;;;;;;;;5014034;28;20054;-83
2023/09/22 06:06:14;;;;;;;5.07;2.00;;;;;;;;;;4994316;28;20522;-85
2023/09/22 06:08:41;;;;;;;5.03;1.98;;;;;;;;;;4994133;28;20045;-84
2023/09/22 06:11:08;;;;;;;3.77;1.83;;;;;;;;;;5008906;28;20030;-82
2023/09/22 06:13:34;;;;;;;3.55;2.00;;;;;;;;;;4990989;28;20046;-83
2023/09/22 06:16:00;;;;;;;3.35;1.63;;;;;;;;;;4988750;28;20069;-84
2023/09/22 06:18:26;;;;;;;3.88;2.00;;;;;;;;;;4976778;28;20104;-83
2023/09/22 06:20:55;;;;;;;5.60;2.20;;;;;;;;;;5016408;28;20030;-83
2023/09/22 06:23:21;;;;;;;3.95;1.92;;;;;;;;;;4993707;28;20509;-82
2023/09/22 06:25:47;;;;;;;4.70;2.10;;;;;;;;;;5004907;28;20044;-84
2023/09/22 06:28:20;;;;;;;3.97;2.03;;;;;;;;;;4984403;28;20050;-83
2023/09/22 06:30:46;;;;;;;3.63;1.80;;;;;;;;;;4970828;28;20037;-83
2023/09/22 06:33:13;;;;;;;4.28;1.73;;;;;;;;;;5000904;28;20066;-83
2023/09/22 06:35:39;;;;;;;2.70;1.58;;;;;;;;;;4990966;28;20057;-83
2023/09/22 06:38:06;;;;;;;4.32;1.80;;;;;;;;;;4987784;28;20034;-84
2023/09/22 06:40:36;;;;;;;3.10;1.60;;;;;;;;;;4988447;28;20965;-82
2023/09/22 06:43:08;;;;;;;4.30;2.15;;;;;;;;;;4972535;28;20047;-84
2023/09/22 06:45:36;;;;;;;3.38;1.60;;;;;;;;;;4962248;28;20062;-82
2023/09/22 06:48:05;;;;;;;3.63;1.70;;;;;;;;;;5001678;28;20038;-83
2023/09/22 06:50:34;;;;;;;3.70;1.45;;;;;;;;;;4950830;28;20088;-83
2023/09/22 06:52:59;;;;;;;3.88;1.80;;;;;;;;;;4994198;28;20050;-83
2023/09/22 06:55:25;;;;;;;4.15;1.70;;;;;;;;;;4994690;28;20042;-83
2023/09/22 06:57:52;;;;;;;4.10;1.60;;;;;;;;;;4978596;28;20120;-83
2023/09/22 07:00:18;;;;;;;4.75;1.40;;;;;;;;;;4986270;28;20402;-83
2023/09/22 07:02:47;;;;;;;3.42;1.40;;;;;;;;;;4996981;28;20121;-83
2023/09/22 07:05:16;;;;;;;3.15;1.42;;;;;;;;;;4992099;28;20089;-81
2023/09/22 07:07:41;;;;;;;4.22;1.40;;;;;;;;;;4977620;28;20038;-85
2023/09/22 07:10:11;;;;;;;3.90;1.30;;;;;;;;;;4986421;28;20568;-82
2023/09/22 07:12:40;;;;;;;3.22;1.40;;;;;;;;;;4983912;28;20118;-81
2023/09/22 07:15:06;;;;;;;4.10;1.48;;;;;;;;;;4960871;28;20126;-84
2023/09/22 07:17:33;;;;;;;4.55;1.60;;;;;;;;;;4958918;28;20089;-84
2023/09/22 07:20:00;;;;;;;2.80;1.35;;;;;;;;;;4989779;28;20096;-83
2023/09/22 07:22:25;;;;;;;4.95;2.15;;;;;;;;;;4987789;28;20042;-84
2023/09/22 07:24:51;;;;;;;3.58;1.40;;;;;;;;;;4984794;28;20460;-83
2023/09/22 07:27:17;;;;;;;3.55;1.52;;;;;;;;;;4962561;28;20045;-84
2023/09/22 07:29:43;;;;;;;7.55;2.00;;;;;;;;;;4993017;28;20498;-83
2023/09/22 07:32:09;;;;;;;5.32;1.40;;;;;;;;;;4980614;28;20067;-84
2023/09/22 07:34:38;;;;;;;3.38;1.38;;;;;;;;;;4967070;28;20038;-83
2023/09/22 07:37:03;;;;;;;3.60;1.85;;;;;;;;;;4952418;28;20037;-84
2023/09/22 07:39:28;;;;;;;4.45;1.77;;;;;;;;;;4986827;28;20481;-84
2023/09/22 07:41:54;;;;;;;4.07;1.58;;;;;;;;;;4973659;28;20081;-83
2023/09/22 07:44:21;;;;;;;3.58;1.55;;;;;;;;;;4984389;28;20121;-84
2023/09/22 07:46:50;;;;;;;3.30;1.77;;;;;;;;;;4986855;28;20037;-85
2023/09/22 07:49:15;;;;;;;5.40;1.75;;;;;;;;;;4989812;28;20038;-84
2023/09/22 07:51:41;;;;;;;3.92;1.70;;;;;;;;;;4963532;28;20096;-84
2023/09/22 07:54:10;;;;;;;3.05;1.75;;;;;;;;;;4979998;28;20410;-84
2023/09/22 07:56:35;;;;;;;3.72;1.70;;;;;;;;;;4999389;28;20088;-83
2023/09/22 07:59:03;;;;;;;4.22;1.70;;;;;;;;;;4989364;28;20680;-83
2023/09/22 08:01:29;;;;;;;;;;;;;;;;;;4984564;28;20073;-84
2023/09/22 08:03:54;;;;;;;3.63;1.45;;;;;;;;;;4975435;28;20369;-84
2023/09/22 08:06:19;;;;;;;3.30;1.58;;;;;;;;;;4962468;28;20050;-83
2023/09/22 08:08:49;;;;;;;8.20;1.70;;;;;;;;;;4960918;28;20495;-84
2023/09/22 08:11:15;;;;;;;4.03;1.83;;;;;;;;;;4986314;28;20046;-82
2023/09/22 08:13:41;;;;;;;3.28;1.70;;;;;;;;;;4985228;28;20482;-83
2023/09/22 08:16:07;;;;;;;3.55;1.65;;;;;;;;;;4985625;28;20046;-83
2023/09/22 08:18:40;;;;;;;3.42;1.73;;;;;;;;;;4971559;28;20520;-84
2023/09/22 08:21:06;;;;;;;4.40;1.90;;;;;;;;;;4975590;28;20064;-84
2023/09/22 08:23:31;;;;;;;5.80;2.00;;;;;;;;;;4994973;28;20046;-85
2023/09/22 08:25:56;;;;;;;3.08;1.65;;;;;;;;;;5002034;28;20034;-83
2023/09/22 08:28:23;;;;;;;4.45;1.70;;;;;;;;;;4997722;28;20808;-83
2023/09/22 08:30:49;;;;;;;4.97;1.60;;;;;;;;;;4989984;28;20034;-83
2023/09/22 08:33:15;;;;;;;3.55;1.40;;;;;;;;;;4992122;28;20133;-83
2023/09/22 08:35:41;;;;;;;5.90;1.77;;;;;;;;;;4995698;28;20044;-84
2023/09/22 08:38:08;;;;;;;3.25;1.60;;;;;;;;;;4974479;28;20073;-83
2023/09/22 08:40:33;;;;;;;3.47;1.70;;;;;;;;;;4984973;28;20052;-82
2023/09/22 08:43:00;;;;;;;3.67;1.20;;;;;;;;;;4984662;28;20042;-82
2023/09/22 08:45:26;;;;;;;6.78;1.35;;;;;;;;;;4979334;28;20570;-83
2023/09/22 08:47:51;;;;;;;3.22;1.30;;;;;;;;;;4971614;28;20129;-82
2023/09/22 08:50:20;;;;;;;4.10;1.60;;;;;;;;;;4986456;28;20062;-82
2023/09/22 08:52:49;;;;;;;3.58;1.50;;;;;;;;;;4973209;28;20124;-83
2023/09/22 08:55:14;;;;;;;3.60;1.40;;;;;;;;;;4973353;28;20082;-82
2023/09/22 08:57:44;;;;;;;3.55;1.27;;;;;;;;;;4969133;28;20073;-82
2023/09/22 09:00:20;;;;;;;4.28;1.80;;;;;;;;;;4969400;28;20334;-82
2023/09/22 09:02:55;;;;;;;3.92;1.30;;;;;;;;;;4945795;28;20039;-83
2023/09/22 09:05:30;;;;;;;3.83;1.17;;;;;;;;;;4966871;28;20109;-82
2023/09/22 09:08:29;;;;;;;3.63;1.33;;;;;;;;;;4974693;28;20445;-83
2023/09/22 09:10:54;;;;;;;3.47;1.20;;;;;;;;;;4984466;28;20402;-82
2023/09/22 09:13:26;;;;;;;6.00;1.50;;;;;;;;;;4984015;28;20080;-82
2023/09/22 09:15:54;;;;;;;4.28;1.63;;;;;;;;;;5005165;28;20054;-83
2023/09/22 09:18:21;;;;;;;4.50;1.27;;;;;;;;;;4987657;28;20088;-83
2023/09/22 09:21:15;;;;;;;3.42;1.40;;;;;;;;;;4987067;28;20069;-84
2023/09/22 09:23:55;;;;;;;5.03;1.08;;;;;;;;;;4988956;28;20137;-82
2023/09/22 09:26:31;;;;;;;3.47;1.10;;;;;;;;;;4996618;28;20084;-83
2023/09/22 09:28:58;;;;;;;2.35;1.00;;;;;;;;;;5006438;28;20038;-82
2023/09/22 09:32:01;;;;;;;;;;;;;;;;;;4985106;28;20157;-82
2023/09/22 09:34:40;;;;;;;2.65;1.00;;;;;;;;;;4916472;29;19919;-82
2023/09/22 09:37:13;;;;;;;3.58;1.13;;;;;;;;;;4963995;28;20040;-84
2023/09/22 09:39:45;;;;;;;3.72;1.20;;;;;;;;;;4973097;28;20039;-83
2023/09/22 09:42:19;;;;;;;3.30;1.00;;;;;;;;;;4986858;28;20045;-83
2023/09/22 09:44:56;;;;;;;4.72;1.20;;;;;;;;;;4960889;28;20431;-83
2023/09/22 09:47:24;;;;;;;2.58;1.00;;;;;;;;;;4974015;28;20041;-83
2023/09/22 09:49:54;;;;;;;5.28;2.45;;;;;;;;;;4972010;28;20038;-83
2023/09/22 09:52:37;;;;;;;3.28;1.40;;;;;;;;;;4979577;28;20105;-84
2023/09/22 09:55:13;;;;;;;4.28;1.33;;;;;;;;;;4966456;28;20195;-84
2023/09/22 09:57:43;;;;;;;4.20;1.10;;;;;;;;;;4987797;28;20433;-83
2023/09/22 10:00:19;;;;;;;3.75;1.17;;;;;;;;;;5004658;28;20485;-84
2023/09/22 10:02:49;;;;;;;4.93;1.10;;;;;;;;;;4981305;28;20035;-83
2023/09/22 10:05:16;;;;;;;2.90;1.00;;;;;;;;;;5005927;28;20056;-84
2023/09/22 10:07:44;;;;;;;2.95;0.98;;;;;;;;;;4989088;28;20119;-83
2023/09/22 10:10:10;;;;;;;;;;;;;;;;;;4984186;28;20087;-82
2023/09/22 10:12:36;;;;;;;3.88;1.15;;;;;;;;;;4990078;28;19984;-83
2023/09/22 10:15:04;;;;;;;3.85;1.17;;;;;;;;;;4977102;28;20034;-84
2023/09/22 10:17:30;;;;;;;2.25;1.00;;;;;;;;;;4990967;28;20050;-83
2023/09/22 10:20:00;;;;;;;4.18;1.10;;;;;;;;;;4967966;28;20038;-84
2023/09/22 10:22:25;;;;;;;2.92;1.00;;;;;;;;;;4988762;28;20393;-83
2023/09/22 10:25:26;;;;;;;3.55;1.35;;;;;;;;;;4975982;28;20045;-83
2023/09/22 10:27:59;;;;;;;3.30;1.10;;;;;;;;;;4918561;29;20079;-84
2023/09/22 10:30:44;;;;;;;3.65;1.00;;;;;;;;;;4965423;28;20049;-83
2023/09/22 10:33:30;;;;;;;3.58;0.95;;;;;;;;;;4968845;28;20034;-83
2023/09/22 10:35:57;;;;;;;3.65;1.23;;;;;;;;;;5006375;28;20038;-84
2023/09/22 10:38:23;;;;;;;4.70;1.10;;;;;;;;;;4991555;28;20547;-83
2023/09/22 10:41:03;;;;;;;2.42;0.98;;;;;;;;;;5007668;28;20034;-84
2023/09/22 10:43:32;;;;;;;5.05;2.75;;;;;;;;;;4986262;28;20059;-85
2023/09/22 10:45:59;;;;;;;4.18;1.20;;;;;;;;;;4991239;28;20458;-83
2023/09/22 10:48:32;;;;;;;3.08;1.08;;;;;;;;;;4969546;28;20151;-82
2023/09/22 10:50:57;;;;;;;3.10;1.10;;;;;;;;;;4970950;28;20033;-83
2023/09/22 10:53:23;;;;;;;2.38;1.00;;;;;;;;;;4985345;28;20043;-83
2023/09/22 10:55:48;;;;;;;3.72;1.25;;;;;;;;;;4977505;28;20035;-84
2023/09/22 10:58:21;;;;;;;1.80;0.85;;;;;;;;;;4967108;28;20591;-83
2023/09/22 11:01:01;;;;;;;5.63;1.10;;;;;;;;;;4978173;28;20038;-83
2023/09/22 11:03:27;;;;;;;3.53;1.02;;;;;;;;;;4988052;28;20046;-82
2023/09/22 11:06:00;;;;;;;3.58;1.20;;;;;;;;;;4957445;28;20474;-82
2023/09/22 11:08:26;;;;;;;4.72;0.95;;;;;;;;;;4986605;28;20742;-82
2023/09/22 11:10:55;;;;;;;6.60;1.00;;;;;;;;;;4988052;28;20037;-83
2023/09/22 11:13:24;;;;;;;2.65;1.00;;;;;;;;;;4991906;28;20121;-82
2023/09/22 11:15:57;;;;;;;3.63;1.08;;;;;;;;;;4992488;28;20038;-83
2023/09/22 11:18:27;;;;;;;2.53;1.10;;;;;;;;;;4957737;28;20091;-83
2023/09/22 11:21:05;;;;;;;2.65;1.00;;;;;;;;;;4987990;28;20498;-83
2023/09/22 11:23:30;;;;;;;;;;;;;;;;;;5005715;28;20049;-83
2023/09/22 11:25:57;;;;;;;3.50;0.95;;;;;;;;;;4974236;28;20373;-82
2023/09/22 11:28:26;;;;;;;4.25;1.30;;;;;;;;;;4985614;28;20093;-82
2023/09/22 11:30:52;;;;;;;2.95;1.05;;;;;;;;;;4969376;28;20045;-83
2023/09/22 11:33:20;;;;;;;3.33;1.13;;;;;;;;;;4986640;28;20398;-84
2023/09/22 11:35:47;;;;;;;4.97;1.17;;;;;;;;;;4974271;28;20044;-82
2023/09/22 11:38:28;;;;;;;2.80;1.20;;;;;;;;;;4994543;28;20044;-83
2023/09/22 11:41:09;;;;;;;3.10;1.30;;;;;;;;;;4984967;28;20045;-81
2023/09/22 11:44:02;;;;;;;5.70;1.10;;;;;;;;;;4990834;28;20050;-83
2023/09/22 11:46:28;;;;;;;3.10;1.27;;;;;;;;;;4982215;28;20116;-83
2023/09/22 11:49:05;;;;;;;3.63;1.23;;;;;;;;;;4993879;28;20124;-83
2023/09/22 11:51:54;;;;;;;3.65;1.23;;;;;;;;;;4986562;28;20448;-83
2023/09/22 11:54:28;;;;;;;2.63;1.10;;;;;;;;;;5005636;28;20128;-83
2023/09/22 11:56:58;;;;;;;3.58;1.40;;;;;;;;;;4975637;28;20034;-82
2023/09/22 11:59:31;;;;;;;3.75;1.15;;;;;;;;;;4963191;28;20045;-82
2023/09/22 12:01:56;;;;;;;2.95;1.23;;;;;;;;;;4988531;28;20409;-82
2023/09/22 12:04:22;;;;;;;2.50;1.05;;;;;;;;;;4973061;28;20042;-83
2023/09/22 12:06:49;;;;;;;2.83;1.00;;;;;;;;;;4974517;28;20073;-83
2023/09/22 12:09:15;;;;;;;3.30;1.00;;;;;;;;;;5007385;28;20058;-84
2023/09/22 12:11:41;;;;;;;3.30;1.25;;;;;;;;;;5005236;28;20057;-84
2023/09/22 12:14:07;;;;;;;3.67;1.10;;;;;;;;;;5004375;28;20129;-83
2023/09/22 12:16:33;;;;;;;2.95;1.10;;;;;;;;;;4972010;28;20526;-85
2023/09/22 12:18:59;;;;;;;2.42;0.88;;;;;;;;;;5006692;28;20033;-85
2023/09/22 12:21:28;;;;;;;2.97;1.00;;;;;;;;;;4992220;28;20040;-84
2023/09/22 12:23:53;;;;;;;3.90;1.10;;;;;;;;;;5006864;28;20035;-83
2023/09/22 12:26:20;;;;;;;2.55;0.88;;;;;;;;;;4970282;28;20440;-84
2023/09/22 12:28:46;;;;;;;4.37;1.00;;;;;;;;;;4991977;28;20034;-85
2023/09/22 12:31:11;;;;;;;2.50;1.00;;;;;;;;;;5004458;28;20044;-84
2023/09/22 12:33:38;;;;;;;2.85;1.00;;;;;;;;;;4988638;28;20038;-83
2023/09/22 12:36:03;;;;;;;2.85;0.90;;;;;;;;;;4988721;28;20030;-85
2023/09/22 12:38:29;;;;;;;2.20;0.85;;;;;;;;;;4973441;28;20383;-84
2023/09/22 12:40:56;;;;;;;3.28;1.13;;;;;;;;;;4984071;28;20494;-84
2023/09/22 12:43:23;;;;;;;4.20;0.90;;;;;;;;;;5004878;28;20049;-84
2023/09/22 12:45:48;;;;;;;1.90;0.70;;;;;;;;;;4996039;28;20592;-86
2023/09/22 12:48:14;;;;;;;3.00;1.27;;;;;;;;;;5002549;28;20083;-85
2023/09/22 12:50:39;;;;;;;3.40;0.80;;;;;;;;;;4996049;28;20137;-85
2023/09/22 12:53:07;;;;;;;2.03;0.80;;;;;;;;;;4990737;28;20131;-85
2023/09/22 12:55:32;;;;;;;4.45;0.90;;;;;;;;;;4989639;28;20870;-85
2023/09/22 12:58:00;;;;;;;2.63;1.10;;;;;;;;;;5003172;28;20130;-84
2023/09/22 13:00:26;;;;;;;2.53;0.90;;;;;;;;;;5009128;28;20041;-84
2023/09/22 13:02:51;;;;;;;2.45;1.02;;;;;;;;;;4986506;28;20041;-84
2023/09/22 13:05:17;;;;;;;2.75;1.08;;;;;;;;;;4982841;28;20042;-86
2023/09/22 13:07:42;;;;;;;4.93;1.10;;;;;;;;;;4981128;28;20046;-85
2023/09/22 13:10:08;;;;;;;3.58;1.10;;;;;;;;;;4983267;28;20040;-84
2023/09/22 13:12:42;;;;;;;2.92;0.93;;;;;;;;;;4980503;28;20069;-85
2023/09/22 13:15:08;;;;;;;2.55;1.05;;;;;;;;;;4985349;28;20536;-86
2023/09/22 13:17:35;;;;;;;2.78;1.13;;;;;;;;;;4992748;28;20177;-83
2023/09/22 13:20:06;;;;;;;4.03;1.23;;;;;;;;;;4981719;28;20065;-86
2023/09/22 13:22:32;;;;;;;2.72;1.20;;;;;;;;;;4965329;28;20928;-87
2023/09/22 13:24:58;;;;;;;3.60;1.27;;;;;;;;;;4988440;28;20517;-86
2023/09/22 13:27:23;;;;;;;3.33;1.20;;;;;;;;;;4985997;28;20046;-86
2023/09/22 13:29:49;;;;;;;3.20;1.30;;;;;;;;;;4986861;28;20042;-87
2023/09/22 13:32:15;;;;;;;3.70;1.40;;;;;;;;;;4987835;28;20037;-86
2023/09/22 13:34:40;;;;;;;5.55;1.40;;;;;;;;;;4980848;28;20476;-86
2023/09/22 13:37:06;;;;;;;3.25;1.40;;;;;;;;;;4996492;28;20038;-85
2023/09/22 13:39:32;;;;;;;4.95;1.30;;;;;;;;;;4989215;28;20034;-86
2023/09/22 13:41:58;;;;;;;3.60;1.30;;;;;;;;;;4991308;28;20038;-87
2023/09/22 13:44:26;;;;;;;3.72;1.30;;;;;;;;;;4966225;28;20053;-87
2023/09/22 13:46:52;;;;;;;5.25;1.20;;;;;;;;;;4983404;28;20063;-79
2023/09/22 13:49:17;;;;;;;3.10;1.70;;;;;;;;;;4975525;28;20555;-79
2023/09/22 13:51:46;;;;;;;3.38;1.10;;;;;;;;;;4980944;28;20058;-80
2023/09/22 13:54:12;;;;;;;4.03;1.25;;;;;;;;;;4967650;28;20558;-80
2023/09/22 13:56:40;;;;;;;3.30;1.20;;;;;;;;;;4951059;28;20038;-79
2023/09/22 13:59:05;;;;;;;3.17;1.00;;;;;;;;;;4954724;28;20034;-79
2023/09/22 14:01:31;;;;;;;3.67;1.10;;;;;;;;;;4967928;28;20042;-79
2023/09/22 14:03:59;;;;;;;4.15;1.20;;;;;;;;;;4952556;28;20046;-79
2023/09/22 14:06:26;;;;;;;2.70;1.23;;;;;;;;;;4969084;28;20473;-80
2023/09/22 14:08:53;;;;;;;3.75;1.20;;;;;;;;;;4959767;28;20034;-80
2023/09/22 14:11:19;;;;;;;2.40;1.10;;;;;;;;;;4950063;28;20056;-79
2023/09/22 14:13:44;;;;;;;3.63;1.30;;;;;;;;;;4970588;28;20066;-80
2023/09/22 14:16:11;;;;;;;2.92;1.27;;;;;;;;;;4975447;28;20691;-79
2023/09/22 14:18:37;;;;;;;4.22;1.27;;;;;;;;;;4956308;28;20049;-80
2023/09/22 14:21:03;;;;;;;3.55;1.30;;;;;;;;;;4957270;28;20398;-79
2023/09/22 14:23:28;;;;;;;3.72;1.27;;;;;;;;;;4959615;28;20041;-80
2023/09/22 14:25:56;;;;;;;3.58;1.23;;;;;;;;;;4977337;28;20029;-80
2023/09/22 14:28:21;;;;;;;4.35;1.33;;;;;;;;;;4974740;28;20034;-80
2023/09/22 14:30:46;;;;;;;4.10;1.10;;;;;;;;;;4991880;28;20554;-80
2023/09/22 14:33:12;;;;;;;3.30;1.30;;;;;;;;;;4985370;28;20033;-79
2023/09/22 14:35:38;;;;;;;3.38;1.10;;;;;;;;;;4971532;28;20041;-80
2023/09/22 14:38:03;;;;;;;2.97;1.15;;;;;;;;;;4959180;28;20117;-79
2023/09/22 14:40:29;;;;;;;2.55;1.40;;;;;;;;;;4972334;28;20029;-79
2023/09/22 14:42:59;;;;;;;3.30;1.10;;;;;;;;;;4968459;28;20054;-79
2023/09/22 14:45:25;;;;;;;3.83;1.10;;;;;;;;;;4988037;28;20809;-79
2023/09/22 14:47:52;;;;;;;3.47;1.20;;;;;;;;;;4974927;28;20122;-79